Terminal Aerodrome Forecast
Issued by NWS

Home | Current Version | Previous Version | Text Only | Print | Product List | Glossary On
Versions: 1 2 3 4 5 6 7 8 9 10 11 12 13
000
FTUS42 TJSJ 021741
TAFISX
TAF
TISX 021741Z 0218/0318 13009KT P6SM VCSH SCT025 BKN045
     FM022100 12009KT P6SM VCSH SCT030 SCT060
     FM022300 08009KT P6SM SCT028 SCT100=

USA.gov is the U.S. government's official web portal to all federal, state and local government web resources and services.